createdAt,value
2023-05-01T00:02:15.634Z,93626.81
2023-05-01T00:04:42.744Z,93631.63
2023-05-01T00:07:09.935Z,93635.00
2023-05-01T00:09:38.287Z,93632.44
2023-05-01T00:12:05.332Z,93634.00
2023-05-01T00:14:32.276Z,93638.19
2023-05-01T00:16:59.297Z,93631.28
2023-05-01T00:19:26.347Z,93641.88
2023-05-01T00:21:53.524Z,93634.47
2023-05-01T00:24:20.574Z,93631.63
2023-05-01T00:26:48.908Z,93636.91
2023-05-01T00:29:17.039Z,93639.31
2023-05-01T00:31:44.138Z,93639.47
2023-05-01T00:34:11.804Z,93634.28
2023-05-01T00:36:38.862Z,93638.72
2023-05-01T00:39:07.913Z,93634.69
2023-05-01T00:41:35.142Z,93642.22
2023-05-01T00:44:03.521Z,93646.41
2023-05-01T00:46:30.950Z,93647.47
2023-05-01T00:48:58.260Z,93647.47
2023-05-01T00:51:27.393Z,93647.47
2023-05-01T00:53:54.545Z,93650.66
2023-05-01T00:56:21.596Z,93656.25
2023-05-01T00:58:53.872Z,93659.41
2023-05-01T01:01:22.958Z,93667.84
2023-05-01T01:03:54.743Z,93666.94
2023-05-01T01:06:25.554Z,93666.72
2023-05-01T01:09:00.960Z,93670.88
2023-05-01T01:11:34.775Z,93667.97
2023-05-01T01:14:09.225Z,93673.03
2023-05-01T01:16:42.436Z,93672.81
2023-05-01T01:19:26.208Z,93663.69
2023-05-01T01:21:56.707Z,93664.63
2023-05-01T01:24:36.450Z,93673.13
2023-05-01T01:27:30.301Z,93664.13
2023-05-01T01:30:12.269Z,93676.13
2023-05-01T01:33:01.366Z,93678.53
2023-05-01T01:35:31.641Z,93677.59
2023-05-01T01:38:03.543Z,93677.31
2023-05-01T01:40:35.567Z,93684.03
2023-05-01T01:43:04.019Z,93680.88
2023-05-01T01:45:36.611Z,93681.22
2023-05-01T01:48:04.879Z,93682.91
2023-05-01T01:50:34.127Z,93678.47
2023-05-01T01:53:02.027Z,93674.44
2023-05-01T01:55:31.001Z,93677.94
2023-05-01T01:57:59.125Z,93675.38
2023-05-01T02:00:26.440Z,93672.31
2023-05-01T02:02:54.066Z,93674.72
2023-05-01T02:05:22.081Z,93675.69
2023-05-01T02:07:51.582Z,93672.03
2023-05-01T02:10:19.193Z,93670.25
2023-05-01T02:12:47.142Z,93667.84
2023-05-01T02:15:15.817Z,93659.69
2023-05-01T02:17:42.587Z,93663.63
2023-05-01T02:20:11.145Z,93660.69
2023-05-01T02:22:38.066Z,93667.56
2023-05-01T02:25:07.672Z,93659.88
2023-05-01T02:27:36.527Z,93663.81
2023-05-01T02:30:05.603Z,93665.28
2023-05-01T02:32:32.953Z,93662.13
2023-05-01T02:35:00.519Z,93663.25
2023-05-01T02:37:29.417Z,93660.84
2023-05-01T02:39:56.843Z,93667.47
2023-05-01T02:42:26.864Z,93668.56
2023-05-01T02:44:58.008Z,93660.66
2023-05-01T02:47:27.837Z,93667.97
2023-05-01T02:49:55.526Z,93669.72
2023-05-01T02:52:25.789Z,93675.38
2023-05-01T02:55:04.060Z,93670.31
2023-05-01T02:57:32.851Z,93675.06
2023-05-01T02:59:59.939Z,93673.69
2023-05-01T03:02:26.959Z,93675.94
2023-05-01T03:04:53.933Z,93672.22
2023-05-01T03:07:21.734Z,93675.28
2023-05-01T03:09:48.729Z,93671.69
2023-05-01T03:12:15.634Z,93666.34
2023-05-01T03:14:44.016Z,93666.91
2023-05-01T03:17:10.960Z,93665.75
2023-05-01T03:19:37.953Z,93664.06
2023-05-01T03:22:05.808Z,93671.81
2023-05-01T03:24:32.740Z,93671.94
2023-05-01T03:26:59.746Z,93673.00
2023-05-01T03:29:27.826Z,93684.56
2023-05-01T03:31:57.886Z,93687.19
2023-05-01T03:34:25.008Z,93688.97
2023-05-01T03:36:52.156Z,93686.22
2023-05-01T03:39:19.293Z,93690.97
2023-05-01T03:42:05.304Z,93695.97
2023-05-01T03:44:38.116Z,93701.25
2023-05-01T03:47:06.649Z,93702.41
2023-05-01T03:49:38.776Z,93711.47
2023-05-01T03:52:06.400Z,93712.13
2023-05-01T03:54:33.520Z,93710.47
2023-05-01T03:57:11.090Z,93712.22
2023-05-01T03:59:38.153Z,93714.38
2023-05-01T04:02:07.154Z,93721.03
2023-05-01T04:04:36.677Z,93726.91
2023-05-01T04:07:03.873Z,93718.25
2023-05-01T04:09:30.966Z,93719.44
2023-05-01T04:11:58.624Z,93726.66
2023-05-01T04:14:25.792Z,93716.00
2023-05-01T04:16:52.736Z,93717.03
2023-05-01T04:19:21.116Z,93717.50
2023-05-01T04:21:52.378Z,93712.84
2023-05-01T04:24:19.564Z,93719.34
2023-05-01T04:26:47.790Z,93716.31
2023-05-01T04:29:14.879Z,93719.56
2023-05-01T04:31:43.354Z,93719.25
2023-05-01T04:34:10.377Z,93712.13
2023-05-01T04:36:39.673Z,93708.97
2023-05-01T04:39:06.668Z,93719.50
2023-05-01T04:41:33.835Z,93718.81
2023-05-01T04:44:01.113Z,93726.59
2023-05-01T04:46:28.358Z,93727.00
2023-05-01T04:48:55.518Z,93720.19
2023-05-01T04:51:22.588Z,93728.13
2023-05-01T04:53:51.887Z,93731.06
2023-05-01T04:56:22.721Z,93736.06
2023-05-01T04:58:53.210Z,93736.41
2023-05-01T05:01:22.698Z,93733.25
2023-05-01T05:03:50.363Z,93737.78
2023-05-01T05:06:17.841Z,93731.44
2023-05-01T05:08:44.765Z,93736.91
2023-05-01T05:11:13.396Z,93740.13
2023-05-01T05:13:56.947Z,93751.41
2023-05-01T05:16:24.157Z,93752.53
2023-05-01T05:18:51.337Z,93744.81
2023-05-01T05:21:19.324Z,93755.44
2023-05-01T05:23:53.120Z,93759.44
2023-05-01T05:26:21.980Z,93763.28
2023-05-01T05:28:50.968Z,93762.47
2023-05-01T05:31:17.988Z,93769.53
2023-05-01T05:33:45.016Z,93770.00
2023-05-01T05:36:13.808Z,93773.03
2023-05-01T05:38:43.415Z,93773.50
2023-05-01T05:41:14.329Z,93776.69
2023-05-01T05:43:43.175Z,93772.16
2023-05-01T05:46:09.944Z,93781.16
2023-05-01T05:48:38.065Z,93776.66
2023-05-01T05:51:05.842Z,93773.41
2023-05-01T05:53:32.943Z,93773.69
2023-05-01T05:55:59.892Z,93771.44
2023-05-01T05:58:27.534Z,93768.84
2023-05-01T06:01:15.157Z,93777.78
2023-05-01T06:03:42.269Z,93782.84
2023-05-01T06:06:09.692Z,93790.72
2023-05-01T06:08:37.837Z,93787.72
2023-05-01T06:11:09.205Z,93786.19
2023-05-01T06:13:38.322Z,93783.88
2023-05-01T06:16:07.466Z,93783.63
2023-05-01T06:18:36.011Z,93796.28
2023-05-01T06:21:02.996Z,93791.22
2023-05-01T06:23:30.479Z,93794.41
2023-05-01T06:26:21.548Z,93794.53
2023-05-01T06:28:48.466Z,93795.38
2023-05-01T06:31:15.710Z,93799.91
2023-05-01T06:33:50.341Z,93792.38
2023-05-01T06:36:26.022Z,93798.50
2023-05-01T06:38:53.191Z,93800.91
2023-05-01T06:41:22.153Z,93793.59
2023-05-01T06:43:49.217Z,93800.53
2023-05-01T06:46:17.148Z,93796.69
2023-05-01T06:48:44.149Z,93799.63
2023-05-01T06:51:16.229Z,93796.47
2023-05-01T06:53:43.332Z,93790.53
2023-05-01T06:56:10.356Z,93801.38
2023-05-01T06:58:37.378Z,93802.91
2023-05-01T07:01:04.725Z,93799.66
2023-05-01T07:03:31.750Z,93801.75
2023-05-01T07:05:58.790Z,93796.69
2023-05-01T07:08:28.339Z,93802.78
2023-05-01T07:10:55.433Z,93800.38
2023-05-01T07:13:22.464Z,93804.31
2023-05-01T07:15:50.715Z,93797.66
2023-05-01T07:18:18.756Z,93801.34
2023-05-01T07:20:45.733Z,93812.41
2023-05-01T07:23:12.841Z,93797.69
2023-05-01T07:25:45.239Z,93809.38
2023-05-01T07:28:12.184Z,93802.22
2023-05-01T07:30:39.691Z,93812.06
2023-05-01T07:33:06.713Z,93810.09
2023-05-01T07:35:33.823Z,93809.50
2023-05-01T07:38:00.846Z,93810.09
2023-05-01T07:40:27.812Z,93805.31
2023-05-01T07:42:56.186Z,93809.91
2023-05-01T07:45:23.190Z,93813.50
2023-05-01T07:47:50.219Z,93807.72
2023-05-01T07:50:17.396Z,93810.75
2023-05-01T07:52:44.581Z,93813.34
2023-05-01T07:55:11.738Z,93815.13
2023-05-01T07:57:39.295Z,93812.69
2023-05-01T08:00:09.284Z,93806.03
2023-05-01T08:02:42.244Z,93809.94
2023-05-01T09:09:47.157Z,93784.00
2023-05-01T09:12:21.009Z,93788.16
2023-05-01T09:14:47.929Z,93791.88
2023-05-01T09:17:15.737Z,93789.78
2023-05-01T09:19:42.741Z,93786.16
2023-05-01T09:22:09.853Z,93786.28
2023-05-01T09:24:36.953Z,93791.34
2023-05-01T09:27:06.480Z,93790.56
2023-05-01T09:29:41.171Z,93786.31
2023-05-01T09:32:16.281Z,93785.16
2023-05-01T09:34:43.719Z,93782.28
2023-05-01T09:37:13.706Z,93788.00
2023-05-01T09:39:40.848Z,93788.25
2023-05-01T09:42:09.712Z,93785.63
2023-05-01T09:44:43.500Z,93785.06
2023-05-01T09:47:10.591Z,93787.16
2023-05-01T09:49:45.650Z,93787.91
2023-05-01T09:52:14.648Z,93789.34
2023-05-01T09:54:41.888Z,93789.03
2023-05-01T09:57:10.222Z,93789.88
2023-05-01T09:59:37.286Z,93783.78
2023-05-01T10:02:04.295Z,93778.28
2023-05-01T10:04:32.171Z,93777.97
2023-05-01T10:06:59.418Z,93779.38
2023-05-01T10:09:29.925Z,93771.13
2023-05-01T10:11:57.878Z,93775.03
2023-05-01T10:14:28.319Z,93781.16
2023-05-01T10:16:57.952Z,93779.13
2023-05-01T10:19:25.457Z,93779.25
2023-05-01T10:21:53.505Z,93772.34
2023-05-01T10:24:20.727Z,93774.19
2023-05-01T10:26:49.068Z,93772.56
2023-05-01T10:29:16.163Z,93769.25
2023-05-01T10:31:44.913Z,93769.28
2023-05-01T10:34:12.533Z,93772.06
2023-05-01T10:36:43.934Z,93778.13
2023-05-01T10:39:32.416Z,93771.91
2023-05-01T10:42:08.563Z,93779.28
2023-05-01T10:44:35.987Z,93777.78
2023-05-01T10:47:41.583Z,93775.75
2023-05-01T10:50:11.587Z,93775.97
2023-05-01T10:53:16.345Z,93780.81
2023-05-01T10:55:44.750Z,93771.13
2023-05-01T10:58:12.112Z,93772.03
2023-05-01T11:00:39.335Z,93778.81
2023-05-01T11:03:36.705Z,93769.97
2023-05-01T11:06:08.929Z,93768.56
2023-05-01T11:08:38.279Z,93770.75
2023-05-01T11:11:42.446Z,93776.59
2023-05-01T11:14:11.016Z,93774.53
2023-05-01T11:16:42.713Z,93777.00
2023-05-01T11:19:11.238Z,93766.81
2023-05-01T11:21:40.710Z,93772.91
2023-05-01T11:24:08.242Z,93777.00
2023-05-01T11:26:38.585Z,93776.03
2023-05-01T11:29:06.228Z,93770.38
2023-05-01T11:31:33.532Z,93778.94
2023-05-01T11:34:01.012Z,93772.22
2023-05-01T11:36:28.949Z,93781.00
2023-05-01T11:38:57.676Z,93778.84
2023-05-01T11:41:25.410Z,93773.47
2023-05-01T11:43:54.011Z,93773.25
2023-05-01T11:46:24.613Z,93765.97
2023-05-01T11:48:51.654Z,93772.31
2023-05-01T11:51:19.201Z,93783.47
2023-05-01T11:54:00.765Z,93763.09
2023-05-01T11:56:28.122Z,93778.94
2023-05-01T11:58:56.221Z,93776.13
2023-05-01T12:01:33.943Z,93783.09
2023-05-01T12:04:01.285Z,93779.69
2023-05-01T12:06:36.972Z,93782.16
2023-05-01T12:09:05.964Z,93782.13
2023-05-01T12:11:32.904Z,93791.88
2023-05-01T12:13:59.860Z,93793.38
2023-05-01T12:16:28.355Z,93813.59
2023-05-01T12:18:55.575Z,93797.13
2023-05-01T12:21:22.892Z,93801.19
2023-05-01T12:23:54.691Z,93803.84
2023-05-01T12:26:26.337Z,93810.50
2023-05-01T12:28:54.412Z,93820.72
2023-05-01T12:31:21.266Z,93814.16
2023-05-01T12:33:53.668Z,93810.53
2023-05-01T12:36:25.329Z,93815.53
2023-05-01T12:38:56.541Z,93803.91
2023-05-01T12:41:37.289Z,93811.50
2023-05-01T12:44:15.162Z,93806.47
2023-05-01T12:46:42.328Z,93804.41
2023-05-01T12:49:09.483Z,93809.19
2023-05-01T12:51:36.729Z,93808.81
2023-05-01T12:54:04.405Z,93795.44
2023-05-01T12:56:31.884Z,93804.66
2023-05-01T12:59:00.207Z,93795.38
2023-05-01T13:01:28.562Z,93791.75
2023-05-01T13:03:58.191Z,93790.81
2023-05-01T13:06:33.292Z,93794.16
2023-05-01T13:09:09.358Z,93799.63
2023-05-01T13:11:36.516Z,93807.81
2023-05-01T13:14:09.078Z,93795.19
2023-05-01T13:16:45.365Z,93797.56
2023-05-01T13:19:13.383Z,93799.53
2023-05-01T13:21:48.302Z,93804.06
2023-05-01T13:24:15.450Z,93799.41
2023-05-01T13:26:42.399Z,93807.38
2023-05-01T13:29:14.428Z,93809.91
2023-05-01T13:31:44.103Z,93812.75
2023-05-01T13:34:11.283Z,93807.06
2023-05-01T13:36:40.236Z,93812.06
2023-05-01T13:39:07.208Z,93819.03
2023-05-01T13:41:35.433Z,93817.78
2023-05-01T13:44:02.344Z,93813.47
2023-05-01T13:46:30.958Z,93819.81
2023-05-01T13:49:04.831Z,93813.38
2023-05-01T13:51:32.654Z,93822.00
2023-05-01T13:53:59.600Z,93821.56
2023-05-01T13:56:26.987Z,93830.72
2023-05-01T13:58:53.959Z,93829.25
2023-05-01T14:01:22.565Z,93821.56
2023-05-01T14:03:51.774Z,93828.94
2023-05-01T14:06:20.609Z,93828.09
2023-05-01T14:08:49.275Z,93828.91
2023-05-01T14:11:16.348Z,93822.78
2023-05-01T14:13:45.620Z,93815.94
2023-05-01T14:16:19.938Z,93815.78
2023-05-01T14:18:48.208Z,93811.41
2023-05-01T14:21:17.932Z,93815.97
2023-05-01T14:23:45.298Z,93816.44
2023-05-01T14:26:17.712Z,93819.63
2023-05-01T14:28:46.285Z,93818.25
2023-05-01T14:31:17.463Z,93817.00
2023-05-01T14:33:44.674Z,93811.63
2023-05-01T14:36:12.786Z,93807.31
2023-05-01T14:38:46.693Z,93806.66
2023-05-01T14:41:14.781Z,93799.34
2023-05-01T14:43:44.439Z,93802.28
2023-05-01T14:46:12.679Z,93799.94
2023-05-01T14:48:41.866Z,93798.44
2023-05-01T14:51:11.190Z,93793.41
2023-05-01T14:53:43.991Z,93797.09
2023-05-01T14:56:11.915Z,93795.19
2023-05-01T14:58:39.068Z,93794.19
2023-05-01T15:01:06.353Z,93789.31
2023-05-01T15:03:36.283Z,93793.69
2023-05-01T15:06:04.266Z,93791.69
2023-05-01T15:08:32.542Z,93795.78
2023-05-01T15:11:01.054Z,93793.94
2023-05-01T15:13:28.841Z,93795.75
2023-05-01T15:15:56.203Z,93790.97
2023-05-01T15:18:23.456Z,93789.94
2023-05-01T15:20:50.488Z,93792.69
2023-05-01T15:23:17.866Z,93798.34
2023-05-01T15:25:44.874Z,93794.63
2023-05-01T15:28:13.655Z,93793.38
2023-05-01T15:30:44.387Z,93802.50
2023-05-01T15:33:11.534Z,93800.09
2023-05-01T15:35:38.764Z,93800.72
2023-05-01T15:38:05.783Z,93799.53
2023-05-01T15:40:33.607Z,93796.00
2023-05-01T15:43:01.374Z,93800.69
2023-05-01T15:45:29.897Z,93804.22
2023-05-01T15:47:57.101Z,93802.63
2023-05-01T15:50:24.184Z,93808.56
2023-05-01T15:52:52.261Z,93802.13
2023-05-01T15:55:19.596Z,93793.28
2023-05-01T15:57:47.465Z,93788.56
2023-05-01T16:00:14.798Z,93790.94
2023-05-01T16:02:44.442Z,93789.28
2023-05-01T16:05:13.656Z,93794.84
2023-05-01T16:07:40.706Z,93792.75
2023-05-01T16:10:08.969Z,93795.81
2023-05-01T16:12:36.011Z,93792.72
2023-05-01T16:15:04.721Z,93796.09
2023-05-01T16:17:33.709Z,93801.94
2023-05-01T16:20:02.904Z,93806.97
2023-05-01T16:22:32.795Z,93805.44
2023-05-01T16:25:01.297Z,93805.19
2023-05-01T16:27:28.308Z,93816.75
2023-05-01T16:29:55.291Z,93824.19
2023-05-01T16:32:24.248Z,93820.25
2023-05-01T16:34:51.325Z,93815.63
2023-05-01T16:37:21.398Z,93815.06
2023-05-01T16:39:48.689Z,93820.69
2023-05-01T16:42:15.704Z,93825.31
2023-05-01T16:44:42.692Z,93831.56
2023-05-01T16:47:11.982Z,93836.56
2023-05-01T16:49:42.154Z,93830.56
2023-05-01T16:52:13.504Z,93829.94
2023-05-01T16:54:41.902Z,93836.53
2023-05-01T16:57:08.957Z,93831.72
2023-05-01T16:59:37.373Z,93838.47
2023-05-01T17:02:05.898Z,93839.03
2023-05-01T17:04:33.581Z,93840.41
2023-05-01T17:07:00.645Z,93841.97
2023-05-01T17:09:27.707Z,93838.28
2023-05-01T17:11:57.551Z,93844.19
2023-05-01T17:14:24.638Z,93843.69
2023-05-01T17:16:53.026Z,93842.03
2023-05-01T17:19:20.470Z,93849.19
2023-05-01T17:21:47.394Z,93843.53
2023-05-01T17:24:14.351Z,93848.69
2023-05-01T17:26:41.447Z,93847.25
2023-05-01T17:29:09.803Z,93852.94
2023-05-01T17:31:36.856Z,93852.88
2023-05-01T17:34:03.830Z,93858.78
2023-05-01T17:36:31.788Z,93867.09
2023-05-01T17:39:01.328Z,93862.69
2023-05-01T17:41:28.418Z,93874.84
2023-05-01T17:43:55.479Z,93873.16
2023-05-01T17:46:23.923Z,93873.38
2023-05-01T17:48:50.933Z,93881.88
2023-05-01T17:51:18.221Z,93882.84
2023-05-01T17:53:45.273Z,93881.00
2023-05-01T17:56:12.353Z,93886.38
2023-05-01T17:58:39.288Z,93905.59
2023-05-01T18:01:06.336Z,93888.47
2023-05-01T18:03:34.971Z,93888.22
2023-05-01T18:06:02.703Z,93891.59
2023-05-01T18:08:29.842Z,93895.72
2023-05-01T18:10:56.758Z,93887.31
2023-05-01T18:13:28.599Z,93886.25
2023-05-01T18:15:55.917Z,93892.25
2023-05-01T18:18:23.027Z,93902.59
2023-05-01T18:20:51.829Z,93909.69
2023-05-01T18:23:19.030Z,93902.72
2023-05-01T18:25:46.470Z,93906.28
2023-05-01T18:28:16.507Z,93917.63
2023-05-01T18:30:43.787Z,93911.56
2023-05-01T18:33:11.222Z,93924.31
2023-05-01T18:35:39.909Z,93918.06
2023-05-01T18:38:08.331Z,93918.44
2023-05-01T18:40:35.948Z,93931.75
2023-05-01T18:43:02.949Z,93932.28
2023-05-01T18:45:30.926Z,93935.22
2023-05-01T18:48:00.629Z,93931.22
2023-05-01T18:50:27.721Z,93938.34
2023-05-01T18:52:54.899Z,93942.91
2023-05-01T18:55:23.289Z,93936.75
2023-05-01T18:57:50.289Z,93937.75
2023-05-01T19:00:20.448Z,93942.44
2023-05-01T19:02:51.669Z,93943.25
2023-05-01T19:05:19.394Z,93944.16
2023-05-01T19:07:46.679Z,93959.50
2023-05-01T19:10:13.860Z,93954.50
2023-05-01T19:12:42.400Z,93956.34
2023-05-01T19:15:10.087Z,93955.56
2023-05-01T19:17:37.374Z,93952.50
2023-05-01T19:20:06.735Z,93961.06
2023-05-01T19:22:33.724Z,93964.28
2023-05-01T19:25:00.776Z,93968.81
2023-05-01T19:27:27.798Z,93968.53
2023-05-01T19:29:56.683Z,93977.91
2023-05-01T19:32:23.975Z,93974.97
2023-05-01T19:34:51.090Z,93973.53
2023-05-01T19:37:18.129Z,93975.41
2023-05-01T19:39:45.221Z,93976.00
2023-05-01T19:42:12.208Z,93973.03
2023-05-01T19:44:39.816Z,93984.31
2023-05-01T19:47:08.174Z,93971.63
2023-05-01T19:49:34.898Z,93977.69
2023-05-01T19:52:01.833Z,93977.88
2023-05-01T19:54:28.821Z,93978.03
2023-05-01T19:56:56.155Z,93970.00
2023-05-01T19:59:23.198Z,93970.16
2023-05-01T20:01:50.333Z,93972.75
2023-05-01T20:04:19.040Z,93968.22
2023-05-01T20:06:46.895Z,93964.69
2023-05-01T20:09:13.933Z,93966.09
2023-05-01T20:11:41.135Z,93966.56
2023-05-01T20:14:08.180Z,93965.56
2023-05-01T20:16:36.105Z,93963.34
2023-05-01T20:19:03.066Z,93964.28
2023-05-01T20:21:31.625Z,93965.78
2023-05-01T20:23:58.663Z,93964.00
2023-05-01T20:26:25.926Z,93962.19
2023-05-01T20:28:53.709Z,93968.81
2023-05-01T20:31:21.386Z,93970.69
2023-05-01T20:33:48.544Z,93968.91
2023-05-01T20:36:17.302Z,93972.03
2023-05-01T20:38:47.546Z,93971.63
2023-05-01T20:41:14.863Z,93978.84
2023-05-01T20:43:41.781Z,93969.88
2023-05-01T20:46:08.857Z,93971.66
2023-05-01T20:48:35.830Z,93971.19
2023-05-01T20:51:02.795Z,93979.47
2023-05-01T20:53:29.859Z,93982.72
2023-05-01T20:55:58.224Z,93974.22
2023-05-01T20:58:24.938Z,93979.38
2023-05-01T21:00:53.888Z,93978.75
2023-05-01T21:03:21.415Z,93973.44
2023-05-01T21:05:48.458Z,93972.34
2023-05-01T21:08:15.545Z,93977.41
2023-05-01T21:10:42.545Z,93984.06
2023-05-01T21:13:11.002Z,93980.53
2023-05-01T21:15:40.956Z,93987.63
2023-05-01T21:18:08.898Z,93994.44
2023-05-01T21:20:35.881Z,93989.59
2023-05-01T21:23:02.866Z,93985.22
2023-05-01T21:25:31.748Z,93992.97
2023-05-01T21:28:03.634Z,93983.34
2023-05-01T21:30:35.070Z,93990.25
2023-05-01T21:33:03.384Z,93990.09
2023-05-01T21:35:30.555Z,93995.75
2023-05-01T21:37:57.673Z,93986.28
2023-05-01T21:40:25.103Z,93990.78
2023-05-01T21:42:53.296Z,93993.03
2023-05-01T21:45:20.893Z,93993.50
2023-05-01T21:47:53.559Z,94003.34
2023-05-01T21:50:21.507Z,93999.50
2023-05-01T21:52:49.312Z,93993.53
2023-05-01T21:55:18.014Z,94007.06
2023-05-01T21:57:45.109Z,94003.19
2023-05-01T22:00:13.029Z,94003.38
2023-05-01T22:02:42.077Z,94007.06
2023-05-01T22:05:11.768Z,94004.00
2023-05-01T22:07:40.184Z,94011.56
2023-05-01T22:10:08.168Z,94018.03
2023-05-01T22:12:35.190Z,94020.94
2023-05-01T22:15:02.402Z,94016.09
2023-05-01T22:17:29.446Z,94018.50
2023-05-01T22:19:56.487Z,94017.22
2023-05-01T22:22:24.903Z,94021.56
2023-05-01T22:24:51.847Z,94020.13
2023-05-01T22:27:18.935Z,94017.88
2023-05-01T22:29:45.911Z,94011.75
2023-05-01T22:32:13.058Z,94011.22
2023-05-01T22:34:40.242Z,94007.84
2023-05-01T22:37:07.373Z,94016.53
2023-05-01T22:39:36.410Z,94010.41
2023-05-01T22:42:03.766Z,94013.28
2023-05-01T22:44:30.865Z,94008.13
2023-05-01T22:46:59.490Z,94016.47
2023-05-01T22:49:27.969Z,94012.75
2023-05-01T22:51:55.142Z,94017.56
2023-05-01T22:54:22.246Z,94024.13
2023-05-01T22:56:51.463Z,94006.94
2023-05-01T22:59:19.048Z,94010.44
2023-05-01T23:01:46.470Z,94012.19
2023-05-01T23:04:14.016Z,94007.53
2023-05-01T23:06:41.372Z,94006.38
2023-05-01T23:09:08.509Z,94005.53
2023-05-01T23:11:35.562Z,94004.56
2023-05-01T23:14:03.916Z,94001.97
2023-05-01T23:16:37.738Z,93997.63
2023-05-01T23:19:05.157Z,93992.97
2023-05-01T23:21:33.915Z,93989.75
2023-05-01T23:24:01.548Z,93991.53
2023-05-01T23:26:33.028Z,93991.34
2023-05-01T23:29:00.275Z,93994.13
2023-05-01T23:31:29.268Z,93985.59
2023-05-01T23:33:56.749Z,93979.00
2023-05-01T23:36:23.757Z,93988.16
2023-05-01T23:38:50.720Z,93982.22
2023-05-01T23:41:17.715Z,93985.09
2023-05-01T23:43:47.979Z,93981.25
2023-05-01T23:46:15.646Z,93987.00
2023-05-01T23:48:44.004Z,93977.03
2023-05-01T23:51:11.103Z,93979.59
2023-05-01T23:53:38.126Z,93979.91
2023-05-01T23:56:05.898Z,93984.09
2023-05-01T23:58:32.818Z,93979.63
